sensor_id;sensor_type;location;lat;lon;timestamp;P1;durP1;ratioP1;P2;durP2;ratioP2
9799;SDS011;4939;52.00085300;4.17406100;2023-03-12T00:01:23;7.18;;;3.33;;
9799;SDS011;4939;52.00085300;4.17406100;2023-03-12T00:03:51;7.57;;;2.88;;
9799;SDS011;4939;52.00085300;4.17406100;2023-03-12T00:06:18;6.20;;;2.83;;
9799;SDS011;4939;52.00085300;4.17406100;2023-03-12T00:08:45;12.63;;;3.50;;
9799;SDS011;4939;52.00085300;4.17406100;2023-03-12T00:11:12;6.28;;;2.83;;
9799;SDS011;4939;52.00085300;4.17406100;2023-03-12T00:13:39;8.35;;;2.95;;
9799;SDS011;4939;52.00085300;4.17406100;2023-03-12T00:16:07;6.88;;;2.92;;
9799;SDS011;4939;52.00085300;4.17406100;2023-03-12T00:18:34;6.63;;;3.00;;
9799;SDS011;4939;52.00085300;4.17406100;2023-03-12T00:21:00;6.63;;;3.00;;
9799;SDS011;4939;52.00085300;4.17406100;2023-03-12T00:23:26;9.15;;;3.30;;
9799;SDS011;4939;52.00085300;4.17406100;2023-03-12T00:25:52;10.13;;;3.20;;
9799;SDS011;4939;52.00085300;4.17406100;2023-03-12T00:28:18;7.85;;;3.50;;
9799;SDS011;4939;52.00085300;4.17406100;2023-03-12T00:30:43;9.98;;;3.80;;
9799;SDS011;4939;52.00085300;4.17406100;2023-03-12T00:33:10;6.47;;;3.10;;
9799;SDS011;4939;52.00085300;4.17406100;2023-03-12T00:35:37;9.25;;;3.17;;
9799;SDS011;4939;52.00085300;4.17406100;2023-03-12T00:38:03;10.90;;;3.78;;
9799;SDS011;4939;52.00085300;4.17406100;2023-03-12T00:40:29;8.13;;;3.63;;
9799;SDS011;4939;52.00085300;4.17406100;2023-03-12T00:42:54;9.10;;;3.70;;
9799;SDS011;4939;52.00085300;4.17406100;2023-03-12T00:45:20;11.02;;;3.85;;
9799;SDS011;4939;52.00085300;4.17406100;2023-03-12T00:47:46;8.85;;;3.70;;
9799;SDS011;4939;52.00085300;4.17406100;2023-03-12T00:50:11;7.85;;;3.63;;
9799;SDS011;4939;52.00085300;4.17406100;2023-03-12T00:52:37;11.10;;;3.60;;
9799;SDS011;4939;52.00085300;4.17406100;2023-03-12T00:55:03;8.57;;;3.75;;
9799;SDS011;4939;52.00085300;4.17406100;2023-03-12T00:57:29;8.82;;;4.13;;
9799;SDS011;4939;52.00085300;4.17406100;2023-03-12T00:59:54;7.18;;;3.53;;
9799;SDS011;4939;52.00085300;4.17406100;2023-03-12T01:02:20;8.95;;;3.20;;
9799;SDS011;4939;52.00085300;4.17406100;2023-03-12T01:04:46;9.90;;;3.75;;
9799;SDS011;4939;52.00085300;4.17406100;2023-03-12T01:07:12;7.10;;;3.53;;
9799;SDS011;4939;52.00085300;4.17406100;2023-03-12T01:09:37;9.23;;;3.67;;
9799;SDS011;4939;52.00085300;4.17406100;2023-03-12T01:12:03;9.82;;;3.67;;
9799;SDS011;4939;52.00085300;4.17406100;2023-03-12T01:14:29;10.23;;;3.67;;
9799;SDS011;4939;52.00085300;4.17406100;2023-03-12T01:16:55;9.18;;;3.53;;
9799;SDS011;4939;52.00085300;4.17406100;2023-03-12T01:19:21;10.48;;;3.40;;
9799;SDS011;4939;52.00085300;4.17406100;2023-03-12T01:21:47;8.57;;;3.30;;
9799;SDS011;4939;52.00085300;4.17406100;2023-03-12T01:24:12;8.95;;;3.72;;
9799;SDS011;4939;52.00085300;4.17406100;2023-03-12T01:26:38;8.15;;;3.65;;
9799;SDS011;4939;52.00085300;4.17406100;2023-03-12T01:29:04;6.40;;;3.30;;
9799;SDS011;4939;52.00085300;4.17406100;2023-03-12T01:31:30;10.15;;;3.70;;
9799;SDS011;4939;52.00085300;4.17406100;2023-03-12T01:33:56;10.25;;;3.83;;
9799;SDS011;4939;52.00085300;4.17406100;2023-03-12T01:36:26;9.00;;;3.88;;
9799;SDS011;4939;52.00085300;4.17406100;2023-03-12T01:38:54;8.68;;;3.80;;
9799;SDS011;4939;52.00085300;4.17406100;2023-03-12T01:41:21;8.50;;;3.90;;
9799;SDS011;4939;52.00085300;4.17406100;2023-03-12T01:43:49;11.18;;;3.97;;
9799;SDS011;4939;52.00085300;4.17406100;2023-03-12T01:48:58;10.35;;;4.03;;
9799;SDS011;4939;52.00085300;4.17406100;2023-03-12T01:52:14;7.63;;;3.85;;
9799;SDS011;4939;52.00085300;4.17406100;2023-03-12T01:54:42;7.93;;;4.03;;
9799;SDS011;4939;52.00085300;4.17406100;2023-03-12T01:57:14;5.97;;;3.47;;
9799;SDS011;4939;52.00085300;4.17406100;2023-03-12T01:59:53;13.75;;;4.30;;
9799;SDS011;4939;52.00085300;4.17406100;2023-03-12T02:02:23;8.98;;;3.70;;
9799;SDS011;4939;52.00085300;4.17406100;2023-03-12T02:04:51;10.40;;;4.10;;
9799;SDS011;4939;52.00085300;4.17406100;2023-03-12T02:07:43;8.40;;;3.72;;
9799;SDS011;4939;52.00085300;4.17406100;2023-03-12T02:10:09;7.85;;;3.72;;
9799;SDS011;4939;52.00085300;4.17406100;2023-03-12T02:12:35;7.20;;;3.70;;
9799;SDS011;4939;52.00085300;4.17406100;2023-03-12T02:15:01;8.85;;;3.75;;
9799;SDS011;4939;52.00085300;4.17406100;2023-03-12T02:17:26;7.82;;;3.47;;
9799;SDS011;4939;52.00085300;4.17406100;2023-03-12T02:22:36;8.07;;;3.05;;
9799;SDS011;4939;52.00085300;4.17406100;2023-03-12T02:30:13;7.28;;;2.97;;
9799;SDS011;4939;52.00085300;4.17406100;2023-03-12T02:32:41;6.60;;;3.15;;
9799;SDS011;4939;52.00085300;4.17406100;2023-03-12T02:35:08;7.32;;;3.20;;
9799;SDS011;4939;52.00085300;4.17406100;2023-03-12T02:37:34;6.28;;;3.17;;
9799;SDS011;4939;52.00085300;4.17406100;2023-03-12T02:40:12;7.80;;;3.35;;
9799;SDS011;4939;52.00085300;4.17406100;2023-03-12T02:42:44;8.82;;;3.60;;
9799;SDS011;4939;52.00085300;4.17406100;2023-03-12T02:45:10;8.68;;;3.33;;
9799;SDS011;4939;52.00085300;4.17406100;2023-03-12T02:47:36;6.57;;;3.40;;
9799;SDS011;4939;52.00085300;4.17406100;2023-03-12T02:50:01;10.05;;;3.58;;
9799;SDS011;4939;52.00085300;4.17406100;2023-03-12T02:52:27;8.18;;;3.50;;
9799;SDS011;4939;52.00085300;4.17406100;2023-03-12T02:54:59;6.90;;;3.75;;
9799;SDS011;4939;52.00085300;4.17406100;2023-03-12T02:57:25;7.25;;;3.67;;
9799;SDS011;4939;52.00085300;4.17406100;2023-03-12T02:59:51;7.68;;;3.67;;
9799;SDS011;4939;52.00085300;4.17406100;2023-03-12T03:02:16;11.18;;;3.67;;
9799;SDS011;4939;52.00085300;4.17406100;2023-03-12T03:04:42;11.13;;;3.55;;
9799;SDS011;4939;52.00085300;4.17406100;2023-03-12T03:07:08;7.97;;;3.22;;
9799;SDS011;4939;52.00085300;4.17406100;2023-03-12T03:11:59;7.90;;;3.60;;
9799;SDS011;4939;52.00085300;4.17406100;2023-03-12T03:14:25;6.85;;;3.30;;
9799;SDS011;4939;52.00085300;4.17406100;2023-03-12T03:16:50;8.95;;;3.83;;
9799;SDS011;4939;52.00085300;4.17406100;2023-03-12T03:19:16;7.70;;;3.08;;
9799;SDS011;4939;52.00085300;4.17406100;2023-03-12T03:21:42;6.97;;;3.28;;
9799;SDS011;4939;52.00085300;4.17406100;2023-03-12T03:24:08;6.50;;;3.47;;
9799;SDS011;4939;52.00085300;4.17406100;2023-03-12T03:26:33;8.18;;;3.63;;
9799;SDS011;4939;52.00085300;4.17406100;2023-03-12T03:28:59;9.75;;;3.67;;
9799;SDS011;4939;52.00085300;4.17406100;2023-03-12T03:31:25;7.00;;;3.80;;
9799;SDS011;4939;52.00085300;4.17406100;2023-03-12T03:33:51;11.93;;;3.67;;
9799;SDS011;4939;52.00085300;4.17406100;2023-03-12T03:36:17;13.25;;;4.05;;
9799;SDS011;4939;52.00085300;4.17406100;2023-03-12T03:38:43;8.68;;;4.07;;
9799;SDS011;4939;52.00085300;4.17406100;2023-03-12T03:41:14;8.50;;;4.18;;
9799;SDS011;4939;52.00085300;4.17406100;2023-03-12T03:43:41;7.93;;;4.40;;
9799;SDS011;4939;52.00085300;4.17406100;2023-03-12T03:46:06;12.38;;;4.80;;
9799;SDS011;4939;52.00085300;4.17406100;2023-03-12T03:48:32;11.43;;;4.60;;
9799;SDS011;4939;52.00085300;4.17406100;2023-03-12T03:50:59;12.90;;;5.25;;
9799;SDS011;4939;52.00085300;4.17406100;2023-03-12T03:53:25;10.20;;;5.00;;
9799;SDS011;4939;52.00085300;4.17406100;2023-03-12T03:55:51;11.90;;;6.00;;
9799;SDS011;4939;52.00085300;4.17406100;2023-03-12T03:58:17;14.05;;;6.10;;
9799;SDS011;4939;52.00085300;4.17406100;2023-03-12T04:00:44;12.10;;;5.50;;
9799;SDS011;4939;52.00085300;4.17406100;2023-03-12T04:03:10;15.02;;;6.32;;
9799;SDS011;4939;52.00085300;4.17406100;2023-03-12T04:05:37;14.82;;;6.13;;
9799;SDS011;4939;52.00085300;4.17406100;2023-03-12T04:08:04;16.38;;;6.95;;
9799;SDS011;4939;52.00085300;4.17406100;2023-03-12T04:10:30;18.00;;;8.27;;
9799;SDS011;4939;52.00085300;4.17406100;2023-03-12T04:12:56;17.38;;;7.60;;
9799;SDS011;4939;52.00085300;4.17406100;2023-03-12T04:15:22;18.42;;;7.35;;
9799;SDS011;4939;52.00085300;4.17406100;2023-03-12T04:17:48;18.85;;;8.52;;
9799;SDS011;4939;52.00085300;4.17406100;2023-03-12T04:20:14;22.05;;;9.30;;
9799;SDS011;4939;52.00085300;4.17406100;2023-03-12T04:22:40;20.38;;;8.57;;
9799;SDS011;4939;52.00085300;4.17406100;2023-03-12T04:25:06;18.52;;;9.10;;
9799;SDS011;4939;52.00085300;4.17406100;2023-03-12T04:27:32;20.48;;;8.57;;
9799;SDS011;4939;52.00085300;4.17406100;2023-03-12T04:29:59;19.58;;;9.38;;
9799;SDS011;4939;52.00085300;4.17406100;2023-03-12T04:32:24;15.93;;;8.13;;
9799;SDS011;4939;52.00085300;4.17406100;2023-03-12T04:34:50;19.73;;;8.77;;
9799;SDS011;4939;52.00085300;4.17406100;2023-03-12T04:37:16;21.67;;;9.15;;
9799;SDS011;4939;52.00085300;4.17406100;2023-03-12T04:39:42;20.95;;;9.23;;
9799;SDS011;4939;52.00085300;4.17406100;2023-03-12T04:42:08;21.45;;;8.75;;
9799;SDS011;4939;52.00085300;4.17406100;2023-03-12T04:44:35;18.83;;;8.77;;
9799;SDS011;4939;52.00085300;4.17406100;2023-03-12T04:47:01;23.27;;;8.38;;
9799;SDS011;4939;52.00085300;4.17406100;2023-03-12T04:49:27;17.63;;;8.18;;
9799;SDS011;4939;52.00085300;4.17406100;2023-03-12T04:51:53;17.20;;;7.90;;
9799;SDS011;4939;52.00085300;4.17406100;2023-03-12T04:54:19;19.85;;;8.27;;
9799;SDS011;4939;52.00085300;4.17406100;2023-03-12T04:56:46;20.50;;;8.00;;
9799;SDS011;4939;52.00085300;4.17406100;2023-03-12T04:59:13;21.38;;;9.07;;
9799;SDS011;4939;52.00085300;4.17406100;2023-03-12T05:01:39;17.95;;;8.18;;
9799;SDS011;4939;52.00085300;4.17406100;2023-03-12T05:04:04;25.33;;;8.98;;
9799;SDS011;4939;52.00085300;4.17406100;2023-03-12T05:06:30;19.35;;;8.73;;
9799;SDS011;4939;52.00085300;4.17406100;2023-03-12T05:08:56;19.33;;;8.60;;
9799;SDS011;4939;52.00085300;4.17406100;2023-03-12T05:11:22;25.10;;;8.00;;
9799;SDS011;4939;52.00085300;4.17406100;2023-03-12T05:13:48;18.63;;;8.82;;
9799;SDS011;4939;52.00085300;4.17406100;2023-03-12T05:16:14;22.05;;;8.75;;
9799;SDS011;4939;52.00085300;4.17406100;2023-03-12T05:18:41;28.60;;;9.60;;
9799;SDS011;4939;52.00085300;4.17406100;2023-03-12T05:21:08;22.40;;;9.90;;
9799;SDS011;4939;52.00085300;4.17406100;2023-03-12T05:23:38;28.13;;;9.82;;
9799;SDS011;4939;52.00085300;4.17406100;2023-03-12T05:26:06;23.50;;;9.70;;
9799;SDS011;4939;52.00085300;4.17406100;2023-03-12T05:28:59;24.27;;;10.43;;
9799;SDS011;4939;52.00085300;4.17406100;2023-03-12T05:31:25;25.88;;;11.10;;
9799;SDS011;4939;52.00085300;4.17406100;2023-03-12T05:33:52;24.55;;;10.18;;
9799;SDS011;4939;52.00085300;4.17406100;2023-03-12T05:36:18;25.40;;;11.00;;
9799;SDS011;4939;52.00085300;4.17406100;2023-03-12T05:38:44;25.33;;;11.23;;
9799;SDS011;4939;52.00085300;4.17406100;2023-03-12T05:41:24;29.30;;;11.57;;
9799;SDS011;4939;52.00085300;4.17406100;2023-03-12T05:43:52;26.35;;;11.25;;
9799;SDS011;4939;52.00085300;4.17406100;2023-03-12T05:46:18;34.95;;;11.93;;
9799;SDS011;4939;52.00085300;4.17406100;2023-03-12T05:48:44;27.70;;;11.88;;
9799;SDS011;4939;52.00085300;4.17406100;2023-03-12T05:51:10;33.38;;;12.95;;
9799;SDS011;4939;52.00085300;4.17406100;2023-03-12T05:53:35;29.17;;;11.07;;
9799;SDS011;4939;52.00085300;4.17406100;2023-03-12T05:56:02;36.13;;;12.65;;
9799;SDS011;4939;52.00085300;4.17406100;2023-03-12T05:58:29;34.55;;;12.80;;
9799;SDS011;4939;52.00085300;4.17406100;2023-03-12T06:00:55;33.78;;;13.23;;
9799;SDS011;4939;52.00085300;4.17406100;2023-03-12T06:03:21;34.92;;;14.20;;
9799;SDS011;4939;52.00085300;4.17406100;2023-03-12T06:05:47;34.85;;;13.75;;
9799;SDS011;4939;52.00085300;4.17406100;2023-03-12T06:08:13;34.53;;;13.60;;
9799;SDS011;4939;52.00085300;4.17406100;2023-03-12T06:10:38;35.20;;;14.30;;
9799;SDS011;4939;52.00085300;4.17406100;2023-03-12T06:13:04;35.35;;;14.45;;
9799;SDS011;4939;52.00085300;4.17406100;2023-03-12T06:15:31;37.30;;;14.07;;
9799;SDS011;4939;52.00085300;4.17406100;2023-03-12T06:17:56;34.60;;;14.13;;
9799;SDS011;4939;52.00085300;4.17406100;2023-03-12T06:20:22;34.90;;;14.27;;
9799;SDS011;4939;52.00085300;4.17406100;2023-03-12T06:22:48;43.08;;;14.38;;
9799;SDS011;4939;52.00085300;4.17406100;2023-03-12T06:25:14;37.63;;;15.63;;
9799;SDS011;4939;52.00085300;4.17406100;2023-03-12T06:27:39;40.63;;;15.63;;
9799;SDS011;4939;52.00085300;4.17406100;2023-03-12T06:30:05;40.75;;;15.27;;
9799;SDS011;4939;52.00085300;4.17406100;2023-03-12T06:32:32;44.60;;;16.42;;
9799;SDS011;4939;52.00085300;4.17406100;2023-03-12T06:34:58;41.92;;;15.70;;
9799;SDS011;4939;52.00085300;4.17406100;2023-03-12T06:37:28;39.55;;;15.00;;
9799;SDS011;4939;52.00085300;4.17406100;2023-03-12T06:39:54;35.45;;;12.82;;
9799;SDS011;4939;52.00085300;4.17406100;2023-03-12T06:42:20;40.20;;;15.18;;
9799;SDS011;4939;52.00085300;4.17406100;2023-03-12T06:44:46;39.97;;;14.70;;
9799;SDS011;4939;52.00085300;4.17406100;2023-03-12T06:47:13;41.22;;;13.70;;
9799;SDS011;4939;52.00085300;4.17406100;2023-03-12T06:49:39;37.60;;;13.73;;
9799;SDS011;4939;52.00085300;4.17406100;2023-03-12T06:52:04;31.95;;;11.25;;
9799;SDS011;4939;52.00085300;4.17406100;2023-03-12T06:54:30;35.03;;;13.20;;
9799;SDS011;4939;52.00085300;4.17406100;2023-03-12T06:56:56;40.63;;;13.00;;
9799;SDS011;4939;52.00085300;4.17406100;2023-03-12T06:59:24;40.25;;;13.70;;
9799;SDS011;4939;52.00085300;4.17406100;2023-03-12T07:01:50;41.58;;;13.15;;
9799;SDS011;4939;52.00085300;4.17406100;2023-03-12T07:04:16;34.47;;;12.73;;
9799;SDS011;4939;52.00085300;4.17406100;2023-03-12T07:06:42;46.72;;;14.38;;
9799;SDS011;4939;52.00085300;4.17406100;2023-03-12T07:09:08;50.53;;;15.50;;
9799;SDS011;4939;52.00085300;4.17406100;2023-03-12T07:11:35;50.28;;;16.10;;
9799;SDS011;4939;52.00085300;4.17406100;2023-03-12T07:14:01;42.95;;;13.43;;
9799;SDS011;4939;52.00085300;4.17406100;2023-03-12T07:16:26;52.00;;;15.65;;
9799;SDS011;4939;52.00085300;4.17406100;2023-03-12T07:18:52;54.67;;;16.75;;
9799;SDS011;4939;52.00085300;4.17406100;2023-03-12T07:21:18;58.05;;;17.50;;
9799;SDS011;4939;52.00085300;4.17406100;2023-03-12T07:23:50;57.50;;;17.80;;
9799;SDS011;4939;52.00085300;4.17406100;2023-03-12T07:26:16;58.67;;;17.40;;
9799;SDS011;4939;52.00085300;4.17406100;2023-03-12T07:28:42;59.28;;;18.58;;
9799;SDS011;4939;52.00085300;4.17406100;2023-03-12T07:31:08;61.90;;;19.13;;
9799;SDS011;4939;52.00085300;4.17406100;2023-03-12T07:33:34;70.60;;;20.13;;
9799;SDS011;4939;52.00085300;4.17406100;2023-03-12T07:35:59;71.32;;;20.23;;
9799;SDS011;4939;52.00085300;4.17406100;2023-03-12T07:38:25;69.45;;;20.52;;
9799;SDS011;4939;52.00085300;4.17406100;2023-03-12T07:40:52;65.80;;;19.35;;
9799;SDS011;4939;52.00085300;4.17406100;2023-03-12T07:43:19;68.15;;;19.38;;
9799;SDS011;4939;52.00085300;4.17406100;2023-03-12T07:45:45;60.38;;;19.13;;
9799;SDS011;4939;52.00085300;4.17406100;2023-03-12T07:48:11;60.33;;;18.70;;
9799;SDS011;4939;52.00085300;4.17406100;2023-03-12T07:50:37;69.70;;;19.90;;
9799;SDS011;4939;52.00085300;4.17406100;2023-03-12T07:53:03;63.13;;;20.23;;
9799;SDS011;4939;52.00085300;4.17406100;2023-03-12T07:55:29;57.85;;;16.20;;
9799;SDS011;4939;52.00085300;4.17406100;2023-03-12T07:57:56;69.57;;;18.35;;
9799;SDS011;4939;52.00085300;4.17406100;2023-03-12T08:00:26;61.17;;;18.08;;
9799;SDS011;4939;52.00085300;4.17406100;2023-03-12T08:02:52;57.17;;;17.23;;
9799;SDS011;4939;52.00085300;4.17406100;2023-03-12T08:05:17;53.00;;;16.10;;
9799;SDS011;4939;52.00085300;4.17406100;2023-03-12T08:07:44;58.85;;;16.85;;
9799;SDS011;4939;52.00085300;4.17406100;2023-03-12T08:10:10;85.10;;;26.15;;
9799;SDS011;4939;52.00085300;4.17406100;2023-03-12T08:17:29;52.85;;;13.40;;
9799;SDS011;4939;52.00085300;4.17406100;2023-03-12T08:19:54;45.40;;;12.40;;
9799;SDS011;4939;52.00085300;4.17406100;2023-03-12T08:22:20;41.33;;;10.32;;
9799;SDS011;4939;52.00085300;4.17406100;2023-03-12T08:24:46;33.92;;;9.00;;
9799;SDS011;4939;52.00085300;4.17406100;2023-03-12T08:27:12;41.77;;;13.33;;
9799;SDS011;4939;52.00085300;4.17406100;2023-03-12T08:29:38;41.67;;;13.40;;
9799;SDS011;4939;52.00085300;4.17406100;2023-03-12T08:32:04;33.78;;;10.60;;
9799;SDS011;4939;52.00085300;4.17406100;2023-03-12T08:34:34;33.22;;;7.30;;
9799;SDS011;4939;52.00085300;4.17406100;2023-03-12T08:37:00;36.30;;;9.30;;
9799;SDS011;4939;52.00085300;4.17406100;2023-03-12T08:39:27;27.23;;;6.85;;
9799;SDS011;4939;52.00085300;4.17406100;2023-03-12T08:41:53;22.40;;;5.32;;
9799;SDS011;4939;52.00085300;4.17406100;2023-03-12T08:44:20;31.52;;;6.60;;
9799;SDS011;4939;52.00085300;4.17406100;2023-03-12T08:46:47;22.70;;;5.00;;
9799;SDS011;4939;52.00085300;4.17406100;2023-03-12T08:49:12;19.05;;;4.10;;
9799;SDS011;4939;52.00085300;4.17406100;2023-03-12T08:51:38;36.92;;;5.50;;
9799;SDS011;4939;52.00085300;4.17406100;2023-03-12T08:54:04;18.73;;;4.47;;
9799;SDS011;4939;52.00085300;4.17406100;2023-03-12T08:56:30;20.58;;;3.65;;
9799;SDS011;4939;52.00085300;4.17406100;2023-03-12T08:58:59;23.17;;;4.38;;
9799;SDS011;4939;52.00085300;4.17406100;2023-03-12T09:01:25;18.00;;;3.50;;
9799;SDS011;4939;52.00085300;4.17406100;2023-03-12T09:03:50;19.08;;;3.58;;
9799;SDS011;4939;52.00085300;4.17406100;2023-03-12T09:06:19;21.23;;;4.07;;
9799;SDS011;4939;52.00085300;4.17406100;2023-03-12T09:08:45;21.08;;;3.90;;
9799;SDS011;4939;52.00085300;4.17406100;2023-03-12T09:11:13;25.15;;;5.00;;
9799;SDS011;4939;52.00085300;4.17406100;2023-03-12T09:13:39;24.58;;;4.10;;
9799;SDS011;4939;52.00085300;4.17406100;2023-03-12T09:16:06;17.25;;;3.70;;
9799;SDS011;4939;52.00085300;4.17406100;2023-03-12T09:18:32;25.20;;;3.53;;
9799;SDS011;4939;52.00085300;4.17406100;2023-03-12T09:20:59;24.38;;;3.42;;
9799;SDS011;4939;52.00085300;4.17406100;2023-03-12T09:23:25;22.33;;;3.53;;
9799;SDS011;4939;52.00085300;4.17406100;2023-03-12T09:25:52;20.58;;;3.33;;
9799;SDS011;4939;52.00085300;4.17406100;2023-03-12T09:28:18;22.83;;;3.22;;
9799;SDS011;4939;52.00085300;4.17406100;2023-03-12T09:30:44;19.60;;;3.50;;
9799;SDS011;4939;52.00085300;4.17406100;2023-03-12T09:33:11;22.42;;;3.60;;
9799;SDS011;4939;52.00085300;4.17406100;2023-03-12T09:35:37;23.05;;;3.80;;
9799;SDS011;4939;52.00085300;4.17406100;2023-03-12T09:38:03;22.10;;;3.35;;
9799;SDS011;4939;52.00085300;4.17406100;2023-03-12T09:40:30;27.15;;;3.53;;
9799;SDS011;4939;52.00085300;4.17406100;2023-03-12T09:42:58;21.83;;;3.20;;
9799;SDS011;4939;52.00085300;4.17406100;2023-03-12T09:45:31;27.75;;;5.07;;
9799;SDS011;4939;52.00085300;4.17406100;2023-03-12T09:48:03;26.60;;;3.72;;
9799;SDS011;4939;52.00085300;4.17406100;2023-03-12T09:50:39;30.10;;;4.03;;
9799;SDS011;4939;52.00085300;4.17406100;2023-03-12T09:53:27;23.05;;;4.20;;
9799;SDS011;4939;52.00085300;4.17406100;2023-03-12T09:56:00;24.48;;;3.28;;
9799;SDS011;4939;52.00085300;4.17406100;2023-03-12T09:58:34;25.17;;;3.78;;
9799;SDS011;4939;52.00085300;4.17406100;2023-03-12T10:09:56;26.98;;;3.63;;
9799;SDS011;4939;52.00085300;4.17406100;2023-03-12T10:18:12;31.42;;;3.55;;
9799;SDS011;4939;52.00085300;4.17406100;2023-03-12T10:23:31;25.90;;;3.53;;
9799;SDS011;4939;52.00085300;4.17406100;2023-03-12T10:26:04;29.80;;;4.00;;
9799;SDS011;4939;52.00085300;4.17406100;2023-03-12T10:28:41;22.25;;;3.72;;
9799;SDS011;4939;52.00085300;4.17406100;2023-03-12T10:31:20;19.15;;;3.05;;
9799;SDS011;4939;52.00085300;4.17406100;2023-03-12T10:33:58;20.58;;;3.42;;
9799;SDS011;4939;52.00085300;4.17406100;2023-03-12T10:36:33;20.98;;;3.40;;
9799;SDS011;4939;52.00085300;4.17406100;2023-03-12T10:39:02;24.45;;;3.50;;
9799;SDS011;4939;52.00085300;4.17406100;2023-03-12T10:41:30;23.50;;;3.40;;
9799;SDS011;4939;52.00085300;4.17406100;2023-03-12T10:43:57;27.65;;;3.88;;
9799;SDS011;4939;52.00085300;4.17406100;2023-03-12T10:54:25;22.45;;;3.78;;
9799;SDS011;4939;52.00085300;4.17406100;2023-03-12T10:56:53;24.27;;;3.70;;
9799;SDS011;4939;52.00085300;4.17406100;2023-03-12T10:59:19;28.20;;;4.13;;
9799;SDS011;4939;52.00085300;4.17406100;2023-03-12T11:01:47;26.58;;;3.05;;
9799;SDS011;4939;52.00085300;4.17406100;2023-03-12T11:04:17;27.38;;;3.50;;
9799;SDS011;4939;52.00085300;4.17406100;2023-03-12T11:09:36;17.60;;;3.08;;
9799;SDS011;4939;52.00085300;4.17406100;2023-03-12T11:12:03;25.55;;;2.90;;
9799;SDS011;4939;52.00085300;4.17406100;2023-03-12T11:14:52;25.83;;;3.80;;
9799;SDS011;4939;52.00085300;4.17406100;2023-03-12T11:17:18;25.17;;;3.80;;
9799;SDS011;4939;52.00085300;4.17406100;2023-03-12T11:19:48;24.85;;;4.07;;
9799;SDS011;4939;52.00085300;4.17406100;2023-03-12T11:22:15;25.40;;;3.95;;
9799;SDS011;4939;52.00085300;4.17406100;2023-03-12T11:25:00;25.40;;;3.78;;
9799;SDS011;4939;52.00085300;4.17406100;2023-03-12T11:27:34;34.03;;;5.00;;
9799;SDS011;4939;52.00085300;4.17406100;2023-03-12T11:30:02;26.48;;;3.95;;
9799;SDS011;4939;52.00085300;4.17406100;2023-03-12T11:32:32;26.20;;;4.38;;
9799;SDS011;4939;52.00085300;4.17406100;2023-03-12T11:35:15;21.02;;;3.72;;
9799;SDS011;4939;52.00085300;4.17406100;2023-03-12T11:51:46;32.30;;;4.35;;
9799;SDS011;4939;52.00085300;4.17406100;2023-03-12T11:54:31;32.08;;;3.80;;
9799;SDS011;4939;52.00085300;4.17406100;2023-03-12T11:57:05;23.58;;;3.70;;
9799;SDS011;4939;52.00085300;4.17406100;2023-03-12T12:05:35;26.70;;;3.85;;
9799;SDS011;4939;52.00085300;4.17406100;2023-03-12T12:18:54;23.97;;;4.00;;
9799;SDS011;4939;52.00085300;4.17406100;2023-03-12T12:21:46;22.13;;;3.85;;
9799;SDS011;4939;52.00085300;4.17406100;2023-03-12T12:32:20;32.55;;;4.45;;
9799;SDS011;4939;52.00085300;4.17406100;2023-03-12T12:37:47;25.15;;;3.20;;
9799;SDS011;4939;52.00085300;4.17406100;2023-03-12T12:43:10;22.58;;;3.72;;
9799;SDS011;4939;52.00085300;4.17406100;2023-03-12T12:46:04;21.65;;;3.40;;
9799;SDS011;4939;52.00085300;4.17406100;2023-03-12T12:48:35;27.02;;;3.33;;
9799;SDS011;4939;52.00085300;4.17406100;2023-03-12T12:51:24;22.27;;;3.97;;
9799;SDS011;4939;52.00085300;4.17406100;2023-03-12T12:56:49;21.25;;;3.45;;
9799;SDS011;4939;52.00085300;4.17406100;2023-03-12T12:59:29;19.97;;;3.43;;
9799;SDS011;4939;52.00085300;4.17406100;2023-03-12T13:01:58;30.75;;;3.95;;
9799;SDS011;4939;52.00085300;4.17406100;2023-03-12T13:04:29;28.83;;;3.85;;
9799;SDS011;4939;52.00085300;4.17406100;2023-03-12T13:07:03;29.67;;;4.43;;
9799;SDS011;4939;52.00085300;4.17406100;2023-03-12T13:09:51;23.05;;;2.70;;
9799;SDS011;4939;52.00085300;4.17406100;2023-03-12T13:14:46;23.30;;;3.30;;
9799;SDS011;4939;52.00085300;4.17406100;2023-03-12T13:17:32;34.63;;;4.60;;
9799;SDS011;4939;52.00085300;4.17406100;2023-03-12T13:22:39;24.73;;;3.67;;
9799;SDS011;4939;52.00085300;4.17406100;2023-03-12T13:25:30;28.08;;;4.22;;
9799;SDS011;4939;52.00085300;4.17406100;2023-03-12T13:31:00;29.25;;;5.03;;
9799;SDS011;4939;52.00085300;4.17406100;2023-03-12T13:33:39;29.35;;;4.22;;
9799;SDS011;4939;52.00085300;4.17406100;2023-03-12T13:38:54;32.75;;;3.40;;
9799;SDS011;4939;52.00085300;4.17406100;2023-03-12T13:41:56;29.63;;;3.85;;
9799;SDS011;4939;52.00085300;4.17406100;2023-03-12T13:52:27;29.83;;;3.60;;
9799;SDS011;4939;52.00085300;4.17406100;2023-03-12T13:55:06;32.05;;;3.78;;
9799;SDS011;4939;52.00085300;4.17406100;2023-03-12T13:57:46;36.22;;;4.10;;
9799;SDS011;4939;52.00085300;4.17406100;2023-03-12T14:02:52;28.65;;;3.88;;
9799;SDS011;4939;52.00085300;4.17406100;2023-03-12T14:05:22;28.00;;;3.30;;
9799;SDS011;4939;52.00085300;4.17406100;2023-03-12T14:08:02;30.98;;;3.75;;
9799;SDS011;4939;52.00085300;4.17406100;2023-03-12T14:10:42;33.15;;;3.63;;
9799;SDS011;4939;52.00085300;4.17406100;2023-03-12T14:13:11;29.67;;;3.97;;
9799;SDS011;4939;52.00085300;4.17406100;2023-03-12T14:15:54;28.88;;;3.85;;
9799;SDS011;4939;52.00085300;4.17406100;2023-03-12T14:18:27;28.30;;;4.07;;
9799;SDS011;4939;52.00085300;4.17406100;2023-03-12T14:20:58;34.28;;;3.80;;
9799;SDS011;4939;52.00085300;4.17406100;2023-03-12T14:23:36;31.13;;;4.22;;
9799;SDS011;4939;52.00085300;4.17406100;2023-03-12T14:26:05;32.20;;;3.92;;
9799;SDS011;4939;52.00085300;4.17406100;2023-03-12T14:28:37;39.90;;;4.43;;
9799;SDS011;4939;52.00085300;4.17406100;2023-03-12T14:31:07;32.45;;;4.32;;
9799;SDS011;4939;52.00085300;4.17406100;2023-03-12T14:33:34;26.95;;;3.95;;
9799;SDS011;4939;52.00085300;4.17406100;2023-03-12T14:36:28;38.03;;;5.60;;
9799;SDS011;4939;52.00085300;4.17406100;2023-03-12T14:39:15;36.60;;;4.60;;
9799;SDS011;4939;52.00085300;4.17406100;2023-03-12T14:41:45;34.78;;;3.85;;
9799;SDS011;4939;52.00085300;4.17406100;2023-03-12T14:44:22;30.38;;;4.68;;
9799;SDS011;4939;52.00085300;4.17406100;2023-03-12T14:47:10;40.25;;;4.57;;
9799;SDS011;4939;52.00085300;4.17406100;2023-03-12T14:49:43;37.05;;;4.63;;
9799;SDS011;4939;52.00085300;4.17406100;2023-03-12T14:52:13;33.55;;;4.28;;
9799;SDS011;4939;52.00085300;4.17406100;2023-03-12T14:54:51;25.48;;;3.42;;
9799;SDS011;4939;52.00085300;4.17406100;2023-03-12T14:57:23;38.95;;;4.60;;
9799;SDS011;4939;52.00085300;4.17406100;2023-03-12T14:59:56;39.40;;;5.22;;
9799;SDS011;4939;52.00085300;4.17406100;2023-03-12T15:02:23;26.83;;;3.92;;
9799;SDS011;4939;52.00085300;4.17406100;2023-03-12T15:04:51;35.70;;;4.35;;